createdAt,value
2023-02-19T00:00:01.126Z,8.70
2023-02-19T00:02:29.783Z,7.30
2023-02-19T00:04:58.192Z,9.10
2023-02-19T00:07:26.359Z,8.40
2023-02-19T00:09:54.772Z,7.90
2023-02-19T00:12:22.831Z,6.70
2023-02-19T00:14:50.859Z,7.70
2023-02-19T00:17:18.994Z,9.80
2023-02-19T00:19:47.005Z,9.50
2023-02-19T00:22:15.020Z,8.00
2023-02-19T00:24:43.229Z,8.20
2023-02-19T00:27:11.212Z,9.10
2023-02-19T00:29:55.547Z,9.30
2023-02-19T00:32:26.706Z,7.90
2023-02-19T00:34:54.743Z,10.20
2023-02-19T00:37:22.937Z,9.80
2023-02-19T00:39:51.146Z,7.40
2023-02-19T00:42:19.606Z,10.10
2023-02-19T00:44:48.142Z,8.20
2023-02-19T00:47:16.351Z,10.10
2023-02-19T00:49:44.346Z,11.10
2023-02-19T00:52:12.548Z,10.60
2023-02-19T00:54:41.048Z,9.00
2023-02-19T00:57:09.063Z,11.70
2023-02-19T00:59:37.200Z,9.60
2023-02-19T01:02:05.507Z,9.40
2023-02-19T01:04:33.545Z,9.10
2023-02-19T01:07:05.939Z,8.80
2023-02-19T01:09:34.240Z,11.70
2023-02-19T01:12:02.301Z,10.10
2023-02-19T01:14:30.397Z,11.80
2023-02-19T01:16:59.017Z,10.90
2023-02-19T01:19:27.343Z,11.60
2023-02-19T01:21:55.817Z,9.80
2023-02-19T01:24:24.917Z,8.90
2023-02-19T01:26:53.057Z,10.80
2023-02-19T01:29:21.188Z,10.70
2023-02-19T01:31:49.541Z,9.00
2023-02-19T01:34:17.721Z,9.20
2023-02-19T01:36:45.900Z,8.00
2023-02-19T01:39:14.572Z,9.10
2023-02-19T01:41:43.358Z,8.70
2023-02-19T01:44:12.297Z,9.40
2023-02-19T01:46:42.564Z,10.30
2023-02-19T01:49:24.952Z,8.60
2023-02-19T01:52:09.913Z,8.70
2023-02-19T01:54:43.079Z,8.50
2023-02-19T01:57:16.137Z,7.60
2023-02-19T01:59:44.694Z,7.40
2023-02-19T02:05:59.739Z,12.00
2023-02-19T02:08:47.501Z,10.80
2023-02-19T02:11:16.108Z,9.90
2023-02-19T02:13:44.618Z,8.60
2023-02-19T02:16:24.240Z,11.50
2023-02-19T02:19:11.159Z,9.60
2023-02-19T02:21:59.120Z,9.90
2023-02-19T02:24:40.206Z,8.10
2023-02-19T02:29:55.175Z,10.10
2023-02-19T02:32:35.622Z,12.10
2023-02-19T02:35:11.417Z,12.60
2023-02-19T02:37:43.929Z,10.60
2023-02-19T02:40:12.461Z,11.50
2023-02-19T02:42:43.667Z,11.80
2023-02-19T02:45:37.708Z,12.60
2023-02-19T02:48:24.199Z,11.60
2023-02-19T02:51:21.013Z,11.60
2023-02-19T02:54:29.461Z,11.50
2023-02-19T02:56:59.883Z,13.00
2023-02-19T02:59:36.208Z,10.00
2023-02-19T03:02:14.186Z,10.90
2023-02-19T03:05:27.141Z,10.60
2023-02-19T03:08:05.845Z,10.70
2023-02-19T03:11:22.471Z,12.50
2023-02-19T03:14:35.172Z,13.70
2023-02-19T03:17:28.880Z,12.90
2023-02-19T03:19:59.093Z,10.70
2023-02-19T03:22:33.440Z,13.90
2023-02-19T03:25:36.465Z,11.00
2023-02-19T03:28:08.793Z,13.60
2023-02-19T03:30:45.406Z,12.30
2023-02-19T03:33:15.450Z,11.50
2023-02-19T03:35:50.141Z,12.70
2023-02-19T03:38:22.114Z,12.00
2023-02-19T03:41:14.351Z,12.40
2023-02-19T03:43:46.279Z,12.50
2023-02-19T03:46:23.520Z,11.30
2023-02-19T03:49:01.798Z,12.90
2023-02-19T03:51:44.348Z,11.60
2023-02-19T03:54:30.689Z,13.60
2023-02-19T03:57:06.827Z,11.10
2023-02-19T03:59:43.406Z,10.20
2023-02-19T04:02:19.678Z,12.20
2023-02-19T04:04:56.346Z,11.20
2023-02-19T04:07:28.877Z,12.20
2023-02-19T04:09:57.114Z,12.60
2023-02-19T04:15:06.735Z,12.60
2023-02-19T04:17:39.317Z,12.20
2023-02-19T04:20:12.199Z,11.80
2023-02-19T04:22:41.932Z,14.30
2023-02-19T04:25:10.448Z,12.50
2023-02-19T04:27:39.552Z,11.90
2023-02-19T04:30:11.475Z,12.10
2023-02-19T04:32:39.663Z,13.40
2023-02-19T04:35:08.102Z,12.40
2023-02-19T04:37:36.401Z,12.50
2023-02-19T04:40:07.882Z,11.40
2023-02-19T04:42:36.113Z,14.90
2023-02-19T04:45:04.496Z,14.90
2023-02-19T04:47:33.156Z,12.80
2023-02-19T04:50:01.358Z,11.60
2023-02-19T04:52:29.577Z,13.50
2023-02-19T04:54:57.709Z,11.30
2023-02-19T04:57:26.093Z,12.80
2023-02-19T04:59:54.276Z,14.20
2023-02-19T05:02:22.259Z,13.90
2023-02-19T05:04:50.439Z,12.40
2023-02-19T05:07:18.868Z,10.90
2023-02-19T05:09:47.031Z,12.50
2023-02-19T05:12:15.238Z,12.30
2023-02-19T05:14:46.683Z,11.80
2023-02-19T05:17:14.756Z,14.90
2023-02-19T05:19:43.077Z,11.50
2023-02-19T05:22:11.249Z,12.40
2023-02-19T05:24:39.493Z,14.00
2023-02-19T05:27:07.685Z,13.40
2023-02-19T05:29:35.859Z,12.20
2023-02-19T05:32:03.897Z,12.40
2023-02-19T05:34:32.094Z,13.10
2023-02-19T05:37:00.246Z,11.20
2023-02-19T05:39:28.459Z,11.60
2023-02-19T05:41:57.412Z,10.30
2023-02-19T05:44:26.417Z,11.40
2023-02-19T05:46:54.709Z,13.30
2023-02-19T05:49:23.754Z,11.10
2023-02-19T05:51:51.992Z,11.70
2023-02-19T05:54:20.228Z,10.90
2023-02-19T05:56:48.587Z,13.00
2023-02-19T05:59:20.790Z,15.20
2023-02-19T06:01:50.525Z,14.50
2023-02-19T06:04:20.467Z,15.10
2023-02-19T06:06:48.989Z,14.00
2023-02-19T06:09:17.685Z,11.90
2023-02-19T06:11:47.505Z,16.40
2023-02-19T06:14:15.548Z,14.70
2023-02-19T06:16:43.809Z,13.50
2023-02-19T06:19:12.076Z,12.80
2023-02-19T06:21:40.126Z,12.80
2023-02-19T06:24:09.908Z,11.90
2023-02-19T06:26:38.629Z,12.80
2023-02-19T06:29:06.710Z,14.40
2023-02-19T06:31:35.160Z,13.00
2023-02-19T06:34:05.120Z,12.60
2023-02-19T06:36:33.484Z,13.70
2023-02-19T06:39:03.898Z,11.10
2023-02-19T06:41:32.431Z,9.70
2023-02-19T06:44:00.461Z,10.80
2023-02-19T06:46:28.737Z,14.10
2023-02-19T06:48:56.862Z,11.40
2023-02-19T06:51:27.197Z,14.00
2023-02-19T06:53:56.299Z,15.20
2023-02-19T06:56:26.333Z,16.40
2023-02-19T06:58:55.621Z,15.30
2023-02-19T07:01:24.399Z,14.90
2023-02-19T07:03:52.992Z,12.50
2023-02-19T07:06:25.736Z,13.40
2023-02-19T07:08:56.437Z,15.80
2023-02-19T07:11:24.880Z,16.40
2023-02-19T07:14:00.973Z,12.90
2023-02-19T07:16:29.800Z,13.60
2023-02-19T07:18:59.168Z,15.50
2023-02-19T07:21:27.888Z,10.60
2023-02-19T07:23:56.997Z,12.50
2023-02-19T07:26:25.573Z,14.20
2023-02-19T07:28:54.245Z,9.90
2023-02-19T07:31:24.511Z,10.00
2023-02-19T07:33:53.092Z,10.40
2023-02-19T07:36:23.839Z,12.10
2023-02-19T07:38:59.670Z,11.60
2023-02-19T07:41:28.589Z,9.80
2023-02-19T07:43:58.792Z,10.90
2023-02-19T07:46:27.158Z,15.20
2023-02-19T07:48:55.373Z,11.70
2023-02-19T07:51:24.180Z,11.30
2023-02-19T07:53:52.641Z,14.00
2023-02-19T07:56:21.074Z,10.50
2023-02-19T07:58:49.296Z,9.60
2023-02-19T08:01:40.915Z,11.00
2023-02-19T08:04:10.860Z,11.30
2023-02-19T08:06:39.149Z,12.30
2023-02-19T08:09:07.484Z,12.30
2023-02-19T08:11:54.450Z,11.10
2023-02-19T08:14:29.485Z,13.10
2023-02-19T08:16:58.564Z,12.20
2023-02-19T08:19:26.651Z,10.10
2023-02-19T08:21:54.803Z,12.20
2023-02-19T08:24:23.144Z,13.00
2023-02-19T08:26:51.169Z,12.30
2023-02-19T08:29:21.076Z,10.60
2023-02-19T08:31:49.540Z,10.80
2023-02-19T08:34:17.741Z,19.00
2023-02-19T08:36:45.883Z,14.70
2023-02-19T08:39:14.033Z,9.80
2023-02-19T08:41:42.066Z,12.90
2023-02-19T08:44:10.095Z,9.80
2023-02-19T08:46:38.403Z,9.50
2023-02-19T08:49:06.500Z,9.90
2023-02-19T08:51:34.658Z,9.50
2023-02-19T08:54:04.371Z,10.60
2023-02-19T08:56:32.590Z,7.20
2023-02-19T08:59:00.745Z,11.40
2023-02-19T09:01:29.090Z,7.80
2023-02-19T09:03:57.281Z,6.40
2023-02-19T09:06:25.379Z,6.20
2023-02-19T09:08:53.911Z,8.20
2023-02-19T09:11:29.634Z,7.60
2023-02-19T09:13:58.412Z,9.00
2023-02-19T09:16:26.453Z,8.70
2023-02-19T09:18:54.661Z,10.70
2023-02-19T09:21:23.008Z,7.60
2023-02-19T09:23:53.942Z,8.90
2023-02-19T09:26:22.261Z,8.00
2023-02-19T09:28:50.500Z,7.80
2023-02-19T09:31:18.597Z,15.60
2023-02-19T09:33:48.503Z,11.60
2023-02-19T09:36:17.311Z,7.00
2023-02-19T09:38:45.592Z,7.90
2023-02-19T09:41:35.397Z,11.10
2023-02-19T09:44:07.038Z,10.50
2023-02-19T09:46:43.527Z,11.90
2023-02-19T09:49:15.495Z,15.20
2023-02-19T09:51:49.925Z,12.70
2023-02-19T09:54:23.454Z,11.40
2023-02-19T09:56:55.645Z,8.20
2023-02-19T09:59:29.022Z,8.50
2023-02-19T10:02:11.689Z,8.20
2023-02-19T10:04:42.829Z,7.50
2023-02-19T10:07:14.399Z,10.40
2023-02-19T10:09:47.581Z,10.90
2023-02-19T10:12:25.097Z,12.10
2023-02-19T10:14:58.634Z,11.40
2023-02-19T10:17:31.523Z,13.10
2023-02-19T10:19:59.718Z,12.00
2023-02-19T10:22:27.924Z,18.10
2023-02-19T10:24:56.588Z,13.20
2023-02-19T10:27:29.547Z,13.70
2023-02-19T10:30:00.480Z,10.20
2023-02-19T10:35:08.839Z,9.80
2023-02-19T10:37:43.876Z,12.50
2023-02-19T10:40:22.648Z,13.80
2023-02-19T10:42:56.006Z,13.30
2023-02-19T10:45:31.685Z,12.20
2023-02-19T10:48:00.218Z,11.30
2023-02-19T10:50:39.410Z,8.60
2023-02-19T10:53:25.358Z,10.70
2023-02-19T10:56:12.731Z,6.90
2023-02-19T10:58:44.815Z,11.20
2023-02-19T11:01:25.880Z,12.20
2023-02-19T11:06:44.930Z,13.20
2023-02-19T11:09:31.510Z,9.50
2023-02-19T11:12:00.092Z,19.40
2023-02-19T11:14:32.082Z,11.00
2023-02-19T11:17:05.126Z,12.40
2023-02-19T11:19:43.248Z,20.60
2023-02-19T11:22:27.722Z,22.60
2023-02-19T11:24:59.428Z,21.00
2023-02-19T11:27:28.021Z,23.00
2023-02-19T11:30:16.773Z,15.40
2023-02-19T11:32:45.447Z,20.20
2023-02-19T11:35:25.440Z,23.90
2023-02-19T11:38:01.280Z,20.80
2023-02-19T11:40:45.008Z,21.30
2023-02-19T11:43:29.658Z,21.00
2023-02-19T11:46:03.823Z,18.50
2023-02-19T11:48:35.230Z,20.60
2023-02-19T11:53:49.674Z,25.80
2023-02-19T11:56:34.352Z,29.30
2023-02-19T11:59:20.320Z,26.20
2023-02-19T12:01:54.441Z,15.20
2023-02-19T12:04:44.905Z,16.60
2023-02-19T12:07:39.040Z,23.10
2023-02-19T12:10:28.017Z,14.30
2023-02-19T12:13:10.636Z,26.30
2023-02-19T12:15:41.465Z,23.10
2023-02-19T12:18:33.942Z,11.80
2023-02-19T12:21:15.111Z,29.60
2023-02-19T12:23:57.577Z,13.10
2023-02-19T12:26:44.950Z,27.10
2023-02-19T12:29:25.404Z,9.00
2023-02-19T12:32:15.160Z,13.70
2023-02-19T12:35:25.370Z,10.90
2023-02-19T12:38:09.045Z,21.50
2023-02-19T12:40:58.664Z,15.50
2023-02-19T12:43:27.894Z,9.10
2023-02-19T12:46:06.087Z,14.70
2023-02-19T12:48:42.640Z,16.00
2023-02-19T12:51:33.293Z,16.70
2023-02-19T12:54:13.884Z,13.80
2023-02-19T12:56:56.499Z,13.30
2023-02-19T12:59:42.196Z,10.10
2023-02-19T13:02:20.839Z,11.40
2023-02-19T13:05:02.604Z,7.80
2023-02-19T13:07:39.180Z,6.30
2023-02-19T13:10:24.051Z,8.30
2023-02-19T13:12:53.956Z,18.70
2023-02-19T13:15:33.679Z,26.20
2023-02-19T13:18:05.658Z,23.10
2023-02-19T13:20:42.647Z,15.10
2023-02-19T13:23:55.158Z,12.40
2023-02-19T13:27:02.079Z,5.90
2023-02-19T13:29:45.816Z,7.00
2023-02-19T13:32:39.232Z,6.30
2023-02-19T13:35:26.271Z,8.10
2023-02-19T13:37:59.802Z,13.20
2023-02-19T13:40:33.760Z,11.10
2023-02-19T13:43:05.467Z,13.90
2023-02-19T13:45:44.200Z,13.10
2023-02-19T13:48:14.762Z,7.40
2023-02-19T13:50:43.857Z,6.10
2023-02-19T13:53:45.815Z,10.60
2023-02-19T13:56:43.522Z,9.30
2023-02-19T13:59:20.694Z,14.00
2023-02-19T14:01:55.036Z,8.90
2023-02-19T14:04:32.041Z,5.70
2023-02-19T14:07:03.140Z,9.50
2023-02-19T14:09:40.758Z,7.40
2023-02-19T14:12:16.124Z,10.20
2023-02-19T14:14:47.034Z,7.50
2023-02-19T14:17:45.769Z,7.80
2023-02-19T14:20:17.185Z,12.20
2023-02-19T14:22:45.367Z,8.30
2023-02-19T14:25:32.111Z,4.60
2023-02-19T14:28:24.345Z,5.80
2023-02-19T14:31:21.525Z,5.70
2023-02-19T14:33:55.168Z,6.90
2023-02-19T14:37:01.041Z,11.10
2023-02-19T14:39:32.233Z,8.80
2023-02-19T14:42:05.253Z,7.70
2023-02-19T14:45:06.147Z,7.40
2023-02-19T14:47:37.730Z,9.40
2023-02-19T14:50:11.885Z,9.90
2023-02-19T14:52:45.209Z,10.70
2023-02-19T14:55:34.405Z,17.40
2023-02-19T14:58:10.596Z,13.10
2023-02-19T15:00:41.962Z,11.30
2023-02-19T15:03:35.105Z,12.70
2023-02-19T15:06:12.110Z,5.20
2023-02-19T15:08:50.817Z,6.60
2023-02-19T15:11:21.708Z,7.20
2023-02-19T15:13:54.952Z,13.00
2023-02-19T15:16:26.227Z,8.60
2023-02-19T15:21:26.907Z,7.10
2023-02-19T15:24:02.816Z,8.60
2023-02-19T15:26:40.672Z,8.60
2023-02-19T15:29:15.118Z,7.90
2023-02-19T15:31:57.565Z,8.20
2023-02-19T15:34:32.239Z,10.70
2023-02-19T15:37:07.059Z,6.50
2023-02-19T15:39:39.919Z,5.30
2023-02-19T15:42:15.691Z,7.30
2023-02-19T15:45:17.121Z,6.10
2023-02-19T15:47:51.031Z,7.20
2023-02-19T15:50:24.108Z,6.40
2023-02-19T15:53:20.062Z,9.60
2023-02-19T15:56:04.878Z,10.70
2023-02-19T15:58:40.358Z,7.80
2023-02-19T16:01:20.351Z,8.10
2023-02-19T16:03:48.669Z,7.50
2023-02-19T16:06:18.816Z,6.90
2023-02-19T16:09:02.363Z,5.80
2023-02-19T16:11:35.454Z,11.80
2023-02-19T16:14:18.786Z,6.70
2023-02-19T16:16:48.897Z,8.70
2023-02-19T16:19:23.722Z,6.50
2023-02-19T16:21:53.217Z,9.40
2023-02-19T16:24:28.107Z,9.00
2023-02-19T16:26:57.276Z,8.20
2023-02-19T16:29:29.524Z,9.60
2023-02-19T16:32:04.921Z,7.20
2023-02-19T16:34:42.366Z,8.20
2023-02-19T16:37:29.815Z,10.20
2023-02-19T16:40:07.361Z,10.20
2023-02-19T16:42:37.160Z,10.80
2023-02-19T16:45:08.224Z,9.70
2023-02-19T16:47:41.688Z,11.10
2023-02-19T16:50:16.118Z,8.70
2023-02-19T16:53:01.329Z,8.40
2023-02-19T16:55:32.597Z,9.60
2023-02-19T16:58:01.470Z,10.90
2023-02-19T17:00:31.922Z,16.20
2023-02-19T17:03:09.003Z,13.10
2023-02-19T17:05:39.108Z,13.80
2023-02-19T17:08:34.984Z,9.20
2023-02-19T17:11:11.050Z,12.20
2023-02-19T17:13:40.726Z,10.80
2023-02-19T17:16:20.735Z,11.90
2023-02-19T17:18:49.359Z,8.80
2023-02-19T17:21:21.112Z,8.40
2023-02-19T17:23:50.200Z,8.40
2023-02-19T17:26:31.510Z,8.00
2023-02-19T17:29:01.807Z,5.80
2023-02-19T17:31:30.024Z,5.10
2023-02-19T17:33:59.016Z,6.40
2023-02-19T17:36:32.898Z,9.80
2023-02-19T17:39:03.258Z,5.60
2023-02-19T17:41:31.695Z,9.10
2023-02-19T17:43:59.920Z,6.60
2023-02-19T17:46:28.331Z,6.20
2023-02-19T17:48:56.639Z,10.10
2023-02-19T17:51:24.926Z,7.70
2023-02-19T17:53:53.213Z,6.70
2023-02-19T17:56:25.782Z,8.80
2023-02-19T17:58:55.512Z,10.70
2023-02-19T18:01:24.739Z,9.90
2023-02-19T18:03:53.041Z,7.30
2023-02-19T18:06:21.134Z,11.30
2023-02-19T18:08:51.361Z,11.60
2023-02-19T18:11:22.342Z,9.70
2023-02-19T18:13:52.160Z,9.70
2023-02-19T18:16:20.670Z,10.50
2023-02-19T18:18:48.805Z,11.10
2023-02-19T18:21:17.142Z,12.90
2023-02-19T18:23:46.858Z,11.20
2023-02-19T18:26:19.720Z,6.70
2023-02-19T18:28:48.037Z,10.70
2023-02-19T18:31:16.348Z,6.60
2023-02-19T18:33:44.780Z,6.00
2023-02-19T18:36:13.161Z,7.10
2023-02-19T18:38:42.138Z,7.70
2023-02-19T18:41:14.443Z,9.10
2023-02-19T18:43:42.928Z,11.10
2023-02-19T18:46:11.272Z,8.20
2023-02-19T18:48:39.549Z,9.70
2023-02-19T18:51:11.654Z,7.70
2023-02-19T18:53:43.035Z,7.80
2023-02-19T18:58:39.065Z,5.80
2023-02-19T19:01:07.285Z,7.20
2023-02-19T19:03:35.636Z,9.10
2023-02-19T19:06:03.911Z,6.90
2023-02-19T19:08:32.391Z,9.30
2023-02-19T19:11:00.631Z,8.80
2023-02-19T19:13:28.665Z,6.60
2023-02-19T19:15:57.176Z,7.00
2023-02-19T19:18:25.776Z,6.70
2023-02-19T19:20:56.670Z,5.40
2023-02-19T19:23:24.961Z,7.80
2023-02-19T19:25:54.699Z,10.20
2023-02-19T19:28:23.603Z,5.90
2023-02-19T19:30:51.950Z,6.90
2023-02-19T19:33:20.408Z,9.10
2023-02-19T19:35:48.528Z,7.20
2023-02-19T19:38:17.179Z,7.60
2023-02-19T19:40:45.361Z,6.50
2023-02-19T19:43:13.443Z,7.80
2023-02-19T19:45:41.954Z,11.10
2023-02-19T19:48:10.236Z,10.10
2023-02-19T19:50:38.274Z,10.50
2023-02-19T19:53:06.865Z,7.80
2023-02-19T19:55:35.213Z,12.60
2023-02-19T19:58:03.710Z,9.30
2023-02-19T20:00:32.182Z,9.20
2023-02-19T20:03:00.525Z,7.60
2023-02-19T20:05:30.048Z,7.10
2023-02-19T20:07:58.505Z,13.10
2023-02-19T20:10:26.731Z,12.30
2023-02-19T20:12:54.748Z,7.40
2023-02-19T20:15:23.817Z,8.50
2023-02-19T20:17:51.915Z,12.60
2023-02-19T20:20:21.589Z,11.10
2023-02-19T20:22:53.528Z,9.60
2023-02-19T20:25:23.026Z,9.60
2023-02-19T20:27:52.457Z,10.00
2023-02-19T20:30:23.287Z,11.40
2023-02-19T20:32:51.517Z,13.70
2023-02-19T20:35:21.575Z,11.00
2023-02-19T20:37:49.733Z,9.80
2023-02-19T20:40:18.403Z,11.80
2023-02-19T20:42:46.590Z,12.20
2023-02-19T20:45:16.840Z,10.40
2023-02-19T20:47:45.082Z,13.30
2023-02-19T20:50:13.419Z,10.10
2023-02-19T20:52:41.707Z,12.60
2023-02-19T20:55:09.956Z,9.80
2023-02-19T20:57:38.324Z,10.10
2023-02-19T21:00:07.785Z,11.40
2023-02-19T21:02:36.118Z,13.60
2023-02-19T21:05:04.591Z,14.70
2023-02-19T21:07:33.018Z,11.00
2023-02-19T21:10:01.656Z,10.20
2023-02-19T21:12:30.095Z,12.90
2023-02-19T21:14:58.525Z,14.00
2023-02-19T21:17:26.681Z,12.50
2023-02-19T21:19:57.554Z,15.50
2023-02-19T21:22:25.775Z,16.80
2023-02-19T21:24:54.304Z,16.60
2023-02-19T21:27:22.680Z,16.70
2023-02-19T21:29:50.996Z,12.50
2023-02-19T21:32:22.301Z,21.60
2023-02-19T21:34:50.473Z,15.40
2023-02-19T21:37:18.615Z,12.80
2023-02-19T21:39:47.147Z,14.80
2023-02-19T21:42:15.509Z,14.60
2023-02-19T21:44:43.610Z,12.70
2023-02-19T21:47:14.866Z,11.80
2023-02-19T21:52:11.222Z,12.30
2023-02-19T21:54:39.364Z,18.40
2023-02-19T21:57:09.439Z,18.90
2023-02-19T21:59:37.698Z,12.70
2023-02-19T22:02:06.389Z,14.90
2023-02-19T22:04:34.498Z,12.20
2023-02-19T22:07:02.889Z,15.50
2023-02-19T22:09:31.027Z,14.20
2023-02-19T22:11:59.282Z,15.30
2023-02-19T22:14:27.544Z,11.40
2023-02-19T22:16:55.734Z,13.80
2023-02-19T22:19:23.873Z,14.20
2023-02-19T22:21:51.988Z,19.10
2023-02-19T22:24:22.902Z,16.80
2023-02-19T22:26:56.208Z,11.80
2023-02-19T22:29:25.186Z,15.70
2023-02-19T22:31:53.375Z,13.80
2023-02-19T22:34:21.886Z,11.50
2023-02-19T22:36:50.160Z,15.40
2023-02-19T22:39:26.454Z,17.20
2023-02-19T22:41:54.874Z,16.30
2023-02-19T22:44:23.114Z,14.40
2023-02-19T22:46:54.461Z,15.60
2023-02-19T22:49:24.315Z,13.00
2023-02-19T22:52:01.135Z,19.90
2023-02-19T22:54:29.362Z,16.70
2023-02-19T22:56:57.538Z,16.30
2023-02-19T22:59:25.764Z,15.60
2023-02-19T23:01:54.523Z,17.30
2023-02-19T23:04:24.142Z,11.40
2023-02-19T23:06:52.463Z,13.30
2023-02-19T23:09:27.452Z,10.90
2023-02-19T23:12:04.857Z,13.00
2023-02-19T23:14:33.280Z,10.60
2023-02-19T23:17:01.368Z,15.40
2023-02-19T23:19:29.775Z,11.70
2023-02-19T23:21:58.259Z,12.60
2023-02-19T23:24:28.903Z,15.70
2023-02-19T23:27:00.816Z,13.10
2023-02-19T23:29:30.796Z,13.70
2023-02-19T23:32:00.428Z,13.30
2023-02-19T23:34:29.059Z,12.60
2023-02-19T23:36:59.667Z,10.90
2023-02-19T23:39:28.234Z,13.90
2023-02-19T23:41:58.094Z,10.50
2023-02-19T23:44:26.389Z,11.60
2023-02-19T23:46:57.372Z,14.80
2023-02-19T23:49:25.820Z,12.90
2023-02-19T23:51:54.188Z,17.20
2023-02-19T23:54:22.171Z,13.20
2023-02-19T23:56:53.998Z,13.70
2023-02-19T23:59:22.356Z,16.40
